Time;durP1;ratioP1;P1;durP2;ratioP2;P2;SDS_P1;SDS_P2;PMS_P1;PMS_P2;Temp;Humidity;BMP_temperature;BMP_pressure;BME280_temperature;BME280_humidity;BME280_pressure;Samples;Min_cycle;Max_cycle;Signal;HPM_P1;HPM_P2
2021/07/03 00:01:52;;;;;;;17.40;10.18;;;;;;;15.10;83.65;101680.72;5069952;28;20413;-56
2021/07/03 00:04:19;;;;;;;18.75;10.60;;;;;;;15.18;82.61;101682.84;5052292;28;20507;-55
2021/07/03 00:06:46;;;;;;;18.90;10.85;;;;;;;15.13;83.24;101682.31;5068827;28;20063;-57
2021/07/03 00:09:13;;;;;;;21.40;12.05;;;;;;;15.14;82.49;101670.75;5071396;28;20512;-56
2021/07/03 00:11:41;;;;;;;19.67;11.18;;;;;;;15.13;82.05;101679.66;5071146;28;20048;-59
2021/07/03 00:14:08;;;;;;;20.63;11.27;;;;;;;15.17;82.09;101681.13;5053145;28;20048;-56
2021/07/03 00:16:35;;;;;;;19.35;10.60;;;;;;;15.19;82.61;101676.59;5069663;28;20041;-56
2021/07/03 00:19:03;;;;;;;17.88;11.13;;;;;;;15.13;82.81;101677.00;5069058;28;20056;-61
2021/07/03 00:21:30;;;;;;;14.75;9.35;;;;;;;15.04;82.56;101681.16;5071138;28;20051;-60
2021/07/03 00:23:57;;;;;;;17.02;10.77;;;;;;;14.98;82.77;101682.47;5070798;28;20079;-60
2021/07/03 00:26:25;;;;;;;17.77;10.02;;;;;;;15.02;82.84;101683.06;5070999;28;20044;-58
2021/07/03 00:28:52;;;;;;;20.65;11.38;;;;;;;14.93;83.92;101689.00;5070623;28;20055;-56
2021/07/03 00:31:18;;;;;;;18.83;10.73;;;;;;;14.91;83.92;101691.75;5036342;28;20366;-55
2021/07/03 00:33:46;;;;;;;16.23;10.20;;;;;;;14.84;84.01;101694.00;5051591;28;20105;-59
2021/07/03 00:36:13;;;;;;;17.17;10.38;;;;;;;14.77;84.15;101692.75;5070839;28;20076;-59
2021/07/03 00:38:40;;;;;;;15.63;9.95;;;;;;;14.75;84.15;101688.50;5070643;28;20060;-55
2021/07/03 00:41:06;;;;;;;18.33;10.60;;;;;;;14.77;83.82;101690.09;5068876;28;20060;-55
2021/07/03 00:43:33;;;;;;;19.55;11.40;;;;;;;14.81;83.73;101696.03;5069696;28;20223;-56
2021/07/03 00:46:00;;;;;;;24.30;11.65;;;;;;;14.81;84.05;101696.03;5069904;28;20056;-56
2021/07/03 00:48:27;;;;;;;17.75;11.35;;;;;;;14.74;84.28;101702.69;5049203;28;20061;-55
2021/07/03 00:50:56;;;;;;;19.30;11.50;;;;;;;14.70;84.23;101700.25;5069216;28;20044;-56
2021/07/03 00:53:23;;;;;;;21.15;11.00;;;;;;;14.70;83.94;101699.41;5052446;28;20505;-52
2021/07/03 00:55:52;;;;;;;17.10;10.75;;;;;;;14.61;83.76;101686.78;5051795;28;20354;-56
2021/07/03 00:58:19;;;;;;;16.95;10.20;;;;;;;14.62;83.41;101691.13;5069921;28;20480;-55
2021/07/03 01:00:46;;;;;;;19.05;10.68;;;;;;;14.64;83.13;101690.09;5052136;28;20079;-55
2021/07/03 01:03:13;;;;;;;17.25;10.98;;;;;;;14.63;83.03;101688.41;5050476;28;20102;-55
2021/07/03 01:05:40;;;;;;;18.70;11.50;;;;;;;14.55;83.41;101682.75;5070136;28;20044;-59
2021/07/03 01:08:07;;;;;;;17.52;10.68;;;;;;;14.50;83.75;101687.50;5070041;28;20052;-59
2021/07/03 01:10:34;;;;;;;17.38;10.00;;;;;;;14.48;83.63;101690.28;5070449;28;20052;-59
2021/07/03 01:13:00;;;;;;;16.98;10.38;;;;;;;14.56;83.26;101692.41;5069339;28;20053;-59
2021/07/03 01:15:28;;;;;;;16.48;10.00;;;;;;;14.56;82.65;101694.19;5069597;28;20036;-59
2021/07/03 01:17:54;;;;;;;15.23;9.88;;;;;;;14.50;83.06;101687.50;5067504;28;20075;-59
2021/07/03 01:20:21;;;;;;;14.85;9.43;;;;;;;14.44;83.74;101694.06;5069459;28;20048;-54
2021/07/03 01:22:48;;;;;;;18.30;10.48;;;;;;;14.36;83.75;101686.66;5069192;28;20045;-56
2021/07/03 01:25:15;;;;;;;17.27;10.00;;;;;;;14.36;83.89;101688.47;5051902;28;20037;-53
2021/07/03 01:27:43;;;;;;;15.20;9.32;;;;;;;14.31;84.07;101688.75;5068480;28;20451;-54
2021/07/03 01:30:12;;;;;;;15.15;9.52;;;;;;;14.33;83.91;101686.03;5069627;28;20370;-54
2021/07/03 01:32:39;;;;;;;14.90;9.40;;;;;;;14.30;83.97;101689.72;5067568;28;20113;-59
2021/07/03 01:35:07;;;;;;;14.48;9.48;;;;;;;14.31;83.71;101691.41;5069198;28;20123;-59
2021/07/03 01:37:34;;;;;;;14.75;8.75;;;;;;;14.20;84.34;101691.28;5068701;28;20048;-55
2021/07/03 01:40:00;;;;;;;16.80;10.25;;;;;;;14.25;84.14;101685.66;5051342;28;20105;-59
2021/07/03 01:42:27;;;;;;;15.52;9.90;;;;;;;14.22;84.00;101684.09;5051824;28;20472;-59
2021/07/03 01:44:54;;;;;;;15.57;9.30;;;;;;;14.19;84.54;101687.81;5034961;28;20041;-59
2021/07/03 01:47:21;;;;;;;15.05;8.98;;;;;;;14.12;84.14;101686.50;5067088;28;20072;-59
2021/07/03 01:49:48;;;;;;;14.00;8.63;;;;;;;14.05;84.65;101679.94;5051800;28;20044;-60
2021/07/03 01:52:17;;;;;;;14.85;8.90;;;;;;;14.08;84.79;101684.16;5051782;28;20098;-58
2021/07/03 01:54:44;;;;;;;15.52;9.02;;;;;;;14.00;85.24;101682.91;5069247;28;20133;-59
2021/07/03 01:57:12;;;;;;;15.48;8.95;;;;;;;14.02;84.41;101680.97;5068731;28;20055;-59
2021/07/03 01:59:38;;;;;;;14.43;8.75;;;;;;;14.08;84.77;101684.16;5051926;28;20049;-59
2021/07/03 02:02:06;;;;;;;15.43;8.60;;;;;;;14.03;84.72;101682.69;5067079;28;20049;-59
2021/07/03 02:04:33;;;;;;;14.60;9.05;;;;;;;14.03;85.24;101681.84;5052030;28;20516;-59
2021/07/03 02:06:59;;;;;;;14.05;8.63;;;;;;;14.00;84.91;101685.53;5069139;28;20040;-59
2021/07/03 02:09:26;;;;;;;14.30;8.40;;;;;;;13.92;85.14;101681.69;5069448;28;20174;-59
2021/07/03 02:11:53;;;;;;;15.02;8.80;;;;;;;13.97;84.44;101684.88;5068343;28;20044;-54
2021/07/03 02:14:20;;;;;;;15.15;8.70;;;;;;;13.93;84.66;101678.94;5069232;28;20428;-55
2021/07/03 02:16:47;;;;;;;14.52;9.20;;;;;;;13.87;84.43;101674.06;5068053;28;20059;-55
2021/07/03 02:19:14;;;;;;;16.52;9.07;;;;;;;13.86;84.54;101682.94;5067827;28;20463;-55
2021/07/03 02:21:41;;;;;;;14.88;9.32;;;;;;;13.82;85.72;101681.44;5051324;28;20397;-55
2021/07/03 02:24:07;;;;;;;15.95;9.52;;;;;;;13.83;85.42;101684.00;5069005;28;20124;-52
2021/07/03 02:26:34;;;;;;;15.70;9.32;;;;;;;13.87;85.07;101687.28;5054816;28;20067;-59
2021/07/03 02:29:01;;;;;;;13.25;8.48;;;;;;;13.80;85.84;101693.94;5072544;28;20052;-59
2021/07/03 02:31:28;;;;;;;18.23;9.98;;;;;;;13.77;86.05;101688.81;5072603;28;20048;-59
2021/07/03 02:33:55;;;;;;;16.27;9.68;;;;;;;13.77;86.47;101686.19;5053806;28;20572;-59
2021/07/03 02:36:22;;;;;;;15.35;9.57;;;;;;;13.79;86.37;101684.31;5054330;28;20056;-55
2021/07/03 02:38:49;;;;;;;14.90;9.50;;;;;;;13.77;86.73;101686.19;5072191;28;20052;-55
2021/07/03 02:41:16;;;;;;;17.70;10.32;;;;;;;13.70;87.62;101677.81;5072731;28;20053;-54
2021/07/03 02:43:43;;;;;;;15.00;9.63;;;;;;;13.67;87.16;101675.38;5071918;28;20055;-58
2021/07/03 02:46:10;;;;;;;14.80;8.95;;;;;;;13.69;86.57;101679.63;5072254;28;20052;-59
2021/07/03 02:48:37;;;;;;;15.27;10.15;;;;;;;13.65;86.72;101675.47;5052512;28;20052;-58
2021/07/03 02:51:04;;;;;;;14.32;9.32;;;;;;;13.74;86.90;101667.88;5072349;28;20547;-59
2021/07/03 02:53:31;;;;;;;13.98;9.10;;;;;;;13.65;86.52;101670.19;5072316;28;20523;-59
2021/07/03 02:55:59;;;;;;;16.40;9.63;;;;;;;13.62;86.65;101665.13;5071567;28;20045;-55
2021/07/03 02:58:26;;;;;;;16.90;9.52;;;;;;;13.61;87.36;101668.69;5071759;28;20131;-54
2021/07/03 03:00:53;;;;;;;15.85;10.00;;;;;;;13.60;87.51;101671.44;5072014;28;20052;-59
2021/07/03 03:03:20;;;;;;;16.23;9.68;;;;;;;13.56;87.37;101664.66;5070591;28;20131;-59
2021/07/03 03:05:46;;;;;;;14.98;9.50;;;;;;;13.56;86.83;101662.00;5054172;28;20512;-56
2021/07/03 03:08:13;;;;;;;16.00;9.02;;;;;;;13.56;87.07;101662.84;5071960;28;20052;-54
2021/07/03 03:10:40;;;;;;;13.40;8.65;;;;;;;13.50;87.92;101655.34;5072179;28;20489;-55
2021/07/03 03:13:07;;;;;;;14.35;8.32;;;;;;;13.47;88.20;101663.44;5071430;28;20052;-55
2021/07/03 03:15:34;;;;;;;13.45;8.95;;;;;;;13.40;88.43;101660.34;5072045;28;20045;-53
2021/07/03 03:18:01;;;;;;;13.77;9.20;;;;;;;13.37;88.54;101659.72;5068041;28;20048;-53
2021/07/03 03:20:28;;;;;;;13.48;8.65;;;;;;;13.38;88.46;101656.97;5072228;28;20485;-58
2021/07/03 03:22:54;;;;;;;15.05;9.90;;;;;;;13.38;89.19;101659.59;5071647;28;20045;-59
2021/07/03 03:25:21;;;;;;;17.95;11.27;;;;;;;13.38;90.18;101656.97;5071886;28;20064;-59
2021/07/03 03:27:48;;;;;;;20.15;11.13;;;;;;;13.38;90.36;101645.56;5070940;28;20049;-60
2021/07/03 03:30:16;;;;;;;14.80;10.25;;;;;;;13.43;89.76;101646.97;5054520;28;20044;-59
2021/07/03 03:32:42;;;;;;;15.75;9.75;;;;;;;13.46;89.69;101643.28;5069260;28;20048;-59
2021/07/03 03:35:10;;;;;;;19.02;12.02;;;;;;;13.46;90.40;101652.03;5071782;28;20094;-59
2021/07/03 03:37:37;;;;;;;18.17;11.48;;;;;;;13.49;89.96;101648.34;5071025;28;20048;-54
2021/07/03 03:40:05;;;;;;;19.08;11.57;;;;;;;13.45;90.14;101639.75;5071036;28;20535;-55
2021/07/03 03:42:32;;;;;;;19.02;11.65;;;;;;;13.43;90.13;101635.53;5069901;28;20040;-53
2021/07/03 03:44:59;;;;;;;17.27;11.20;;;;;;;13.43;90.07;101624.94;5071266;28;20444;-56
2021/07/03 03:47:26;;;;;;;19.67;12.30;;;;;;;13.47;90.49;101639.66;5069282;28;20060;-59
2021/07/03 03:49:53;;;;;;;21.92;11.73;;;;;;;13.53;90.01;101634.00;5071286;28;20052;-58
2021/07/03 03:52:20;;;;;;;22.08;13.18;;;;;;;13.54;90.26;101635.69;5071572;28;20052;-51
2021/07/03 03:54:47;;;;;;;24.83;14.88;;;;;;;13.48;90.54;101633.44;5070898;28;20064;-60
2021/07/03 03:57:29;;;;;;;30.08;14.95;;;;;;;13.46;90.88;101635.34;5053324;28;20044;-58
2021/07/03 03:59:57;;;;;;;35.67;16.08;;;;;;;13.48;91.08;101636.94;5069836;28;20056;-58
2021/07/03 04:02:25;;;;;;;35.75;17.25;;;;;;;13.55;91.23;101632.06;5069465;28;20536;-58
2021/07/03 04:04:52;;;;;;;46.65;17.88;;;;;;;13.56;90.79;101627.66;5070021;28;20057;-58
2021/07/03 04:07:20;;;;;;;44.55;18.42;;;;;;;13.55;90.96;101626.78;5070995;28;20405;-58
2021/07/03 04:09:48;;;;;;;42.28;17.85;;;;;;;13.59;90.59;101625.66;5069500;28;20048;-58
2021/07/03 04:12:15;;;;;;;37.75;17.42;;;;;;;13.55;91.03;101626.78;5070495;28;20060;-58
2021/07/03 04:14:42;;;;;;;37.10;15.98;;;;;;;13.58;91.29;101626.63;5053701;28;20070;-60
2021/07/03 04:17:09;;;;;;;33.47;15.90;;;;;;;13.67;91.08;101623.38;5068410;28;20488;-58
2021/07/03 04:19:36;;;;;;;29.40;16.02;;;;;;;13.64;91.30;101628.00;5070859;28;20060;-59
2021/07/03 04:22:03;;;;;;;29.98;16.70;;;;;;;13.53;92.31;101626.06;5070088;28;20048;-58
2021/07/03 04:24:29;;;;;;;30.13;17.33;;;;;;;13.60;92.04;101619.41;5052236;28;20074;-58
2021/07/03 04:26:56;;;;;;;30.33;17.38;;;;;;;13.69;92.00;101623.28;5052503;28;20044;-57
2021/07/03 04:29:27;;;;;;;33.28;18.42;;;;;;;13.71;92.14;101621.34;5069893;28;20054;-57
2021/07/03 04:31:54;;;;;;;35.55;19.20;;;;;;;13.68;92.31;101625.03;5051561;28;20044;-52
2021/07/03 04:34:21;;;;;;;38.33;21.08;;;;;;;13.72;92.16;101631.00;5068121;28;20053;-55
2021/07/03 04:36:48;;;;;;;43.00;22.13;;;;;;;13.72;92.25;101628.34;5052201;28;20052;-54
2021/07/03 04:39:15;;;;;;;44.45;21.77;;;;;;;13.75;91.91;101622.84;5070794;28;20049;-58
2021/07/03 04:41:42;;;;;;;46.13;22.23;;;;;;;13.77;92.39;101615.69;5070325;28;20063;-58
2021/07/03 04:44:09;;;;;;;45.67;22.33;;;;;;;13.80;91.86;101618.09;5069413;28;20514;-58
2021/07/03 04:46:36;;;;;;;47.38;23.17;;;;;;;13.84;92.11;101626.69;5070036;28;20056;-58
2021/07/03 04:49:03;;;;;;;38.75;20.52;;;;;;;13.85;92.17;101634.53;5067120;28;20049;-57
2021/07/03 04:51:30;;;;;;;36.63;20.38;;;;;;;13.89;92.03;101626.38;5036164;28;20063;-58
2021/07/03 04:53:57;;;;;;;40.95;21.27;;;;;;;14.02;90.80;101636.03;5070030;28;20056;-58
2021/07/03 04:56:24;;;;;;;36.17;19.65;;;;;;;14.15;90.36;101632.53;5069698;28;20052;-58
2021/07/03 04:58:51;;;;;;;36.35;20.35;;;;;;;14.14;90.58;101634.34;5069726;28;20048;-58
2021/07/03 05:01:18;;;;;;;36.15;19.17;;;;;;;14.11;91.14;101631.06;5070332;28;20420;-58
2021/07/03 05:03:44;;;;;;;30.77;19.33;;;;;;;14.15;91.27;101632.53;5050695;28;20174;-58
2021/07/03 05:06:11;;;;;;;36.50;20.50;;;;;;;14.15;91.03;101630.78;5069566;28;20119;-58
2021/07/03 05:08:38;;;;;;;31.48;19.35;;;;;;;14.17;91.22;101643.88;5070038;28;20051;-58
2021/07/03 05:11:05;;;;;;;35.83;20.88;;;;;;;14.21;91.33;101629.50;5051452;28;20060;-59
2021/07/03 05:13:32;;;;;;;35.47;21.25;;;;;;;14.21;91.34;101642.72;5052095;28;20101;-58
2021/07/03 05:15:58;;;;;;;29.88;18.67;;;;;;;14.28;90.67;101641.34;5069557;28;20055;-58
2021/07/03 05:18:26;;;;;;;34.28;20.63;;;;;;;14.35;90.70;101632.03;5050083;28;20044;-58
2021/07/03 05:20:52;;;;;;;36.58;19.63;;;;;;;14.39;90.85;101639.78;5069274;28;20055;-59
2021/07/03 05:23:20;;;;;;;35.38;19.48;;;;;;;14.42;90.84;101645.69;5070135;28;20535;-58
2021/07/03 05:25:46;;;;;;;32.63;19.73;;;;;;;14.50;91.70;101647.81;5069478;28;20574;-59
2021/07/03 05:28:13;;;;;;;36.50;21.15;;;;;;;14.52;91.31;101645.94;5069404;28;20060;-58
2021/07/03 05:30:41;;;;;;;38.47;22.60;;;;;;;14.53;91.27;101645.81;5069754;28;20143;-58
2021/07/03 05:33:08;;;;;;;37.45;22.50;;;;;;;14.58;91.17;101642.84;5065790;28;20050;-59
2021/07/03 05:35:36;;;;;;;37.80;21.70;;;;;;;14.66;90.68;101643.19;5068066;28;20057;-59
2021/07/03 05:38:03;;;;;;;40.47;23.38;;;;;;;14.73;91.21;101640.13;5068951;28;20045;-58
2021/07/03 05:40:30;;;;;;;37.53;24.20;;;;;;;14.80;91.18;101636.06;5069611;28;20052;-59
2021/07/03 05:42:57;;;;;;;37.17;23.08;;;;;;;14.87;91.19;101632.03;5069154;28;20055;-59
2021/07/03 05:45:24;;;;;;;37.42;22.40;;;;;;;14.93;91.44;101631.59;5069373;28;20397;-54
2021/07/03 05:47:51;;;;;;;41.03;25.05;;;;;;;14.98;91.63;101634.78;5066425;28;20056;-59
2021/07/03 05:50:23;;;;;;;36.72;23.00;;;;;;;15.03;91.54;101626.50;5069697;28;20048;-59
2021/07/03 05:52:50;;;;;;;41.88;23.27;;;;;;;15.16;91.66;101632.59;5069414;28;20102;-60
2021/07/03 05:55:17;;;;;;;43.28;25.48;;;;;;;15.26;91.36;101621.34;5069519;28;20504;-59
2021/07/03 05:57:45;;;;;;;46.38;25.73;;;;;;;15.34;91.65;101629.59;5069065;28;20079;-59
2021/07/03 06:00:15;;;;;;;45.38;26.27;;;;;;;15.42;90.58;101626.34;5070667;28;20137;-58
2021/07/03 06:02:41;;;;;;;47.45;28.15;;;;;;;15.57;90.78;101624.38;5053280;28;20501;-58
2021/07/03 06:05:09;;;;;;;47.67;27.38;;;;;;;15.71;89.50;101627.69;5072785;28;20066;-55
2021/07/03 06:07:36;;;;;;;45.85;28.55;;;;;;;15.76;89.44;101622.06;5073089;28;20036;-59
2021/07/03 06:10:04;;;;;;;47.80;27.20;;;;;;;15.85;88.65;101623.22;5071393;28;20045;-54
2021/07/03 06:12:31;;;;;;;45.50;27.48;;;;;;;15.94;89.23;101617.22;5073014;28;20381;-59
2021/07/03 06:14:58;;;;;;;42.45;26.92;;;;;;;16.09;87.64;101615.19;5072485;28;20408;-59
2021/07/03 06:17:25;;;;;;;41.78;26.10;;;;;;;16.16;88.26;101613.75;5052792;28;20063;-59
2021/07/03 06:19:51;;;;;;;46.50;28.30;;;;;;;16.27;87.02;101618.25;5055488;28;20420;-55
2021/07/03 06:22:18;;;;;;;43.28;27.02;;;;;;;16.37;85.63;101611.28;5073234;28;20048;-55
2021/07/03 06:24:47;;;;;;;44.67;27.38;;;;;;;16.51;84.43;101615.50;5055048;28;20048;-59
2021/07/03 06:27:14;;;;;;;41.05;26.52;;;;;;;16.69;83.08;101615.84;5055361;28;20652;-59
2021/07/03 06:29:41;;;;;;;40.40;26.23;;;;;;;16.71;83.42;101616.59;5073150;28;20102;-59
2021/07/03 06:32:08;;;;;;;38.65;25.08;;;;;;;16.85;82.84;101614.63;5070503;28;20056;-56
2021/07/03 06:34:37;;;;;;;39.13;26.90;;;;;;;16.88;83.50;101609.09;5055645;28;20449;-56
2021/07/03 06:37:04;;;;;;;39.40;24.08;;;;;;;16.99;82.67;101609.09;5054754;28;20048;-59
2021/07/03 06:39:31;;;;;;;38.80;23.98;;;;;;;17.16;82.17;101615.69;5072541;28;20054;-55
2021/07/03 06:41:58;;;;;;;38.00;24.55;;;;;;;17.18;81.75;101619.09;5072671;28;20074;-59
2021/07/03 06:44:25;;;;;;;40.63;26.40;;;;;;;17.31;82.84;101624.22;5072849;28;20044;-55
2021/07/03 06:46:52;;;;;;;35.83;24.35;;;;;;;17.47;81.18;101617.69;5071215;28;20098;-56
2021/07/03 06:49:19;;;;;;;35.22;24.83;;;;;;;17.66;81.05;101619.66;5071346;28;20056;-59
2021/07/03 06:51:46;;;;;;;37.03;25.48;;;;;;;17.79;80.58;101619.47;5072881;28;20044;-57
2021/07/03 06:54:13;;;;;;;39.63;24.92;;;;;;;17.89;80.65;101618.56;5071952;28;20048;-54
2021/07/03 06:56:40;;;;;;;38.85;25.90;;;;;;;17.98;78.60;101616.97;5072252;28;20040;-59
2021/07/03 06:59:06;;;;;;;40.80;24.98;;;;;;;18.07;79.49;101610.88;5071675;28;20056;-55
2021/07/03 07:01:33;;;;;;;38.53;25.20;;;;;;;18.16;78.27;101611.94;5053927;28;20056;-56
2021/07/03 07:04:00;;;;;;;38.97;26.20;;;;;;;18.32;77.58;101607.94;5052872;28;20412;-56
2021/07/03 07:06:27;;;;;;;35.95;25.30;;;;;;;18.47;77.06;101603.09;5072155;28;20041;-57
2021/07/03 07:08:54;;;;;;;37.15;24.52;;;;;;;18.63;76.52;101610.59;5070887;28;20059;-60
2021/07/03 07:11:21;;;;;;;36.38;24.15;;;;;;;18.78;76.74;101603.09;5053044;28;20114;-60
2021/07/03 07:13:48;;;;;;;36.17;26.25;;;;;;;18.90;75.87;101607.38;5071993;28;20056;-59
2021/07/03 07:16:15;;;;;;;35.30;25.20;;;;;;;19.05;76.04;101613.16;5071897;28;20517;-60
2021/07/03 07:18:41;;;;;;;37.03;25.42;;;;;;;19.29;74.65;101607.41;5052441;28;20051;-60
2021/07/03 07:21:08;;;;;;;37.45;25.63;;;;;;;19.48;73.46;101603.94;5071341;28;20056;-57
2021/07/03 07:23:35;;;;;;;34.72;23.67;;;;;;;19.64;74.10;101599.88;5054637;28;20049;-56
2021/07/03 07:26:02;;;;;;;36.05;25.25;;;;;;;19.83;72.64;101604.38;5071201;28;20052;-57
2021/07/03 07:28:28;;;;;;;34.38;24.83;;;;;;;20.10;71.51;101598.28;5071200;28;20106;-56
2021/07/03 07:30:55;;;;;;;32.58;23.92;;;;;;;20.14;70.28;101593.47;5071613;28;20041;-56
2021/07/03 07:33:22;;;;;;;35.33;22.80;;;;;;;20.32;69.95;101588.25;5051747;28;20064;-60
2021/07/03 07:35:49;;;;;;;31.83;22.55;;;;;;;20.53;69.02;101590.69;5071774;28;20142;-60
2021/07/03 07:38:15;;;;;;;31.27;21.30;;;;;;;20.75;68.92;101584.13;5071575;28;20052;-61
2021/07/03 07:40:42;;;;;;;32.70;22.33;;;;;;;20.89;68.24;101594.34;5053514;28;20455;-61
2021/07/03 07:43:09;;;;;;;33.70;23.52;;;;;;;20.99;66.69;101593.44;5053209;28;20040;-60
2021/07/03 07:45:36;;;;;;;32.33;22.90;;;;;;;21.08;68.21;101590.69;5071851;28;20055;-60
2021/07/03 07:48:03;;;;;;;28.50;19.33;;;;;;;21.30;68.28;101588.59;5051003;28;20059;-61
2021/07/03 07:50:34;;;;;;;26.08;19.50;;;;;;;21.67;67.38;101594.78;5054638;28;20485;-60
2021/07/03 07:53:01;;;;;;;33.83;21.08;;;;;;;21.85;64.52;101582.19;5053504;28;20504;-61
2021/07/03 07:55:28;;;;;;;28.58;20.48;;;;;;;22.07;64.87;101580.88;5053542;28;20048;-57
2021/07/03 07:57:55;;;;;;;24.67;16.95;;;;;;;22.07;61.31;101586.22;5070301;28;20516;-56
2021/07/03 08:00:22;;;;;;;24.38;16.55;;;;;;;22.21;60.41;101570.53;5070739;28;20059;-61
2021/07/03 08:02:50;;;;;;;25.98;16.65;;;;;;;22.37;60.36;101573.31;5068936;28;20049;-57
2021/07/03 08:05:18;;;;;;;23.58;16.80;;;;;;;22.43;59.34;101575.38;5053617;28;20507;-57
2021/07/03 08:07:45;;;;;;;21.88;14.65;;;;;;;22.54;57.73;101570.75;5070494;28;20493;-61
2021/07/03 08:10:13;;;;;;;23.33;15.35;;;;;;;22.80;59.22;101573.34;5052904;28;20044;-57
2021/07/03 08:12:41;;;;;;;25.70;16.00;;;;;;;22.83;57.47;101580.22;5052815;28;20443;-58
2021/07/03 08:15:10;;;;;;;28.10;17.58;;;;;;;22.98;57.11;101578.59;5053415;28;20041;-58
2021/07/03 08:17:42;;;;;;;34.30;18.33;;;;;;;22.94;56.11;101575.38;5068242;28;20049;-61
2021/07/03 08:20:17;;;;;;;24.63;16.52;;;;;;;23.03;57.35;101570.03;5070483;28;20064;-61
2021/07/03 08:22:49;;;;;;;23.30;16.13;;;;;;;23.19;56.94;101575.47;5052811;28;20044;-57
2021/07/03 08:25:17;;;;;;;28.20;18.50;;;;;;;23.45;56.20;101569.09;5052918;28;20051;-57
2021/07/03 08:27:45;;;;;;;24.67;15.73;;;;;;;23.42;57.17;101567.63;5052804;28;20452;-57
2021/07/03 08:30:12;;;;;;;23.67;15.95;;;;;;;23.70;57.44;101582.53;5052794;28;20040;-57
2021/07/03 08:32:40;;;;;;;22.30;15.57;;;;;;;24.02;57.10;101576.28;5050563;28;20049;-60
2021/07/03 08:35:08;;;;;;;22.13;15.38;;;;;;;24.03;54.75;101574.47;5069935;28;20059;-56
2021/07/03 08:37:35;;;;;;;21.58;15.15;;;;;;;23.87;54.67;101570.75;5052961;28;20396;-61
2021/07/03 08:40:05;;;;;;;26.75;15.65;;;;;;;23.95;54.47;101567.25;5053091;28;20412;-56
2021/07/03 08:42:32;;;;;;;21.73;14.98;;;;;;;24.14;53.98;101560.66;5069906;28;20048;-56
2021/07/03 08:44:59;;;;;;;21.83;15.15;;;;;;;24.35;53.83;101552.03;5052560;28;20076;-56
2021/07/03 08:47:26;;;;;;;24.48;14.18;;;;;;;24.53;53.10;101550.94;5067364;28;20803;-57
2021/07/03 08:49:55;;;;;;;21.15;14.70;;;;;;;24.68;52.70;101553.75;5090122;28;20097;-56
2021/07/03 08:52:21;;;;;;;23.08;14.93;;;;;;;24.91;53.91;101543.03;5089349;28;20097;-57
2021/07/03 08:55:01;;;;;;;20.33;14.40;;;;;;;25.06;50.12;101545.78;5090515;28;20060;-61
2021/07/03 08:57:31;;;;;;;21.42;14.77;;;;;;;25.07;50.98;101537.56;5089527;28;20439;-58
2021/07/03 08:59:59;;;;;;;22.65;13.82;;;;;;;25.17;51.31;101537.31;5090125;28;20411;-61
2021/07/03 09:02:44;;;;;;;22.15;13.10;;;;;;;25.35;50.89;101530.81;5088352;28;20063;-60
2021/07/03 09:05:22;;;;;;;21.55;12.65;;;;;;;25.73;50.68;101530.81;5090573;28;20454;-60
2021/07/03 09:07:51;;;;;;;24.02;13.88;;;;;;;25.55;48.58;101531.97;5072232;28;20400;-59
2021/07/03 09:10:22;;;;;;;18.27;11.27;;;;;;;25.77;48.14;101527.53;5090144;28;20554;-56
2021/07/03 09:12:51;;;;;;;22.95;14.27;;;;;;;25.95;47.94;101529.06;5071466;28;20048;-57
2021/07/03 09:15:23;;;;;;;20.92;13.20;;;;;;;25.87;47.06;101529.97;5090202;28;20055;-57
2021/07/03 09:17:57;;;;;;;16.42;11.60;;;;;;;25.59;46.08;101521.66;5086816;28;20036;-56
2021/07/03 09:20:43;;;;;;;17.33;11.02;;;;;;;25.88;48.02;101523.56;5089775;28;20059;-57
2021/07/03 09:23:17;;;;;;;18.60;12.60;;;;;;;26.19;48.11;101516.34;5071489;28;20052;-57
2021/07/03 09:25:55;;;;;;;16.15;11.20;;;;;;;26.29;45.64;101517.72;5090022;28;20416;-57
2021/07/03 09:28:29;;;;;;;17.17;10.93;;;;;;;26.44;45.94;101516.88;5088973;28;20047;-56
2021/07/03 09:31:00;;;;;;;16.20;11.30;;;;;;;26.59;44.46;101516.84;5089496;28;20086;-57
2021/07/03 09:33:30;;;;;;;18.38;12.20;;;;;;;26.61;45.36;101510.22;5087679;28;20176;-57
2021/07/03 09:35:59;;;;;;;16.02;9.50;;;;;;;26.74;45.93;101506.03;5070637;28;20526;-57
2021/07/03 09:38:35;;;;;;;17.75;10.43;;;;;;;26.95;44.16;101521.38;5088308;28;20040;-60
2021/07/03 09:41:09;;;;;;;16.63;11.90;;;;;;;27.42;44.04;101517.28;5071976;28;20052;-62
2021/07/03 09:43:40;;;;;;;16.20;10.93;;;;;;;27.03;42.18;101512.34;5089733;28;20036;-58
2021/07/03 09:46:07;;;;;;;15.05;10.35;;;;;;;26.97;42.55;101511.25;5089164;28;20056;-60
2021/07/03 09:48:38;;;;;;;12.02;7.60;;;;;;;27.41;40.78;101512.91;5078607;28;20063;-60
2021/07/03 09:51:09;;;;;;;10.75;7.47;;;;;;;27.52;38.50;101514.22;5052548;28;20493;-61
2021/07/03 09:53:35;;;;;;;10.63;6.00;;;;;;;27.30;39.78;101514.22;5070086;28;20504;-60
2021/07/03 09:56:03;;;;;;;14.27;9.65;;;;;;;27.58;40.94;101513.44;5051378;28;20049;-59
2021/07/03 09:58:30;;;;;;;9.57;6.53;;;;;;;27.64;39.77;101511.81;5068539;28;20563;-60
2021/07/03 10:00:56;;;;;;;13.38;8.25;;;;;;;27.35;41.31;101510.09;5069464;28;20496;-61
2021/07/03 10:03:23;;;;;;;14.15;9.05;;;;;;;27.58;40.39;101515.28;5050635;28;20041;-60
2021/07/03 10:05:52;;;;;;;13.55;8.32;;;;;;;27.76;41.50;101499.44;5069451;28;20481;-61
2021/07/03 10:08:21;;;;;;;12.77;8.48;;;;;;;28.09;40.21;101509.63;5069309;28;20051;-60
2021/07/03 10:10:57;;;;;;;12.20;8.02;;;;;;;28.47;41.13;101511.03;5069978;28;20053;-60
2021/07/03 10:13:25;;;;;;;14.70;9.65;;;;;;;28.45;40.35;101505.78;5069704;28;20050;-60
2021/07/03 10:16:05;;;;;;;14.55;9.82;;;;;;;28.33;40.51;101502.00;5068535;28;20046;-60
2021/07/03 10:18:32;;;;;;;13.93;9.40;;;;;;;28.49;39.71;101500.81;5068017;28;20381;-62
2021/07/03 10:21:13;;;;;;;11.30;7.82;;;;;;;28.77;39.17;101499.88;5068776;28;20044;-61
2021/07/03 10:23:44;;;;;;;12.68;8.15;;;;;;;29.00;39.55;101494.06;5052017;28;20063;-60
2021/07/03 10:26:12;;;;;;;12.50;8.33;;;;;;;29.42;39.04;101492.00;5069521;28;20044;-60
2021/07/03 10:28:42;;;;;;;13.43;8.82;;;;;;;28.85;38.86;101488.88;5051940;28;20070;-61
2021/07/03 10:31:11;;;;;;;12.35;8.68;;;;;;;29.14;39.29;101484.94;5069735;28;20037;-60
2021/07/03 10:33:49;;;;;;;12.25;8.68;;;;;;;28.96;38.72;101487.41;5050307;28;20048;-61
2021/07/03 10:36:30;;;;;;;14.07;8.02;;;;;;;29.22;39.79;101486.59;5069559;28;20049;-60
2021/07/03 10:38:59;;;;;;;13.32;8.90;;;;;;;29.48;38.37;101490.38;5069231;28;20044;-61
2021/07/03 10:41:31;;;;;;;13.90;8.50;;;;;;;29.57;36.54;101490.97;5069809;28;20060;-61
2021/07/03 10:44:12;;;;;;;12.07;8.73;;;;;;;29.54;36.47;101477.84;5069344;28;20049;-61
2021/07/03 10:46:44;;;;;;;11.48;7.47;;;;;;;29.73;38.08;101482.38;5069883;28;20043;-62
2021/07/03 10:49:12;;;;;;;;;;;;;;;30.13;37.00;101478.72;5072492;28;20059;-60
2021/07/03 10:51:41;;;;;;;10.93;7.38;;;;;;;30.20;36.72;101473.28;5073220;28;19924;-60
2021/07/03 10:54:15;;;;;;;13.00;9.18;;;;;;;29.97;35.96;101477.34;5073084;28;20053;-57
2021/07/03 10:57:07;;;;;;;9.68;6.68;;;;;;;30.34;38.72;101477.59;5071861;28;20123;-59
2021/07/03 10:59:37;;;;;;;10.35;7.00;;;;;;;30.57;35.71;101473.53;5072189;28;20063;-58
2021/07/03 11:02:09;;;;;;;9.43;6.90;;;;;;;30.68;35.38;101472.84;5069739;28;20052;-59
2021/07/03 11:04:50;;;;;;;10.98;6.80;;;;;;;30.83;34.80;101462.50;5071698;28;20539;-59
2021/07/03 11:07:19;;;;;;;11.90;7.00;;;;;;;30.70;34.77;101469.91;5072444;28;20579;-58
2021/07/03 11:09:46;;;;;;;10.60;6.40;;;;;;;31.15;34.62;101458.94;5071781;28;20135;-59
2021/07/03 11:12:21;;;;;;;9.70;6.60;;;;;;;30.89;32.73;101451.81;5071586;28;20044;-59
2021/07/03 11:14:53;;;;;;;8.75;6.05;;;;;;;30.53;34.40;101454.16;5054242;28;20044;-58
2021/07/03 11:17:21;;;;;;;;;;;;;;;30.21;33.51;101448.66;5070093;28;20052;-58